Terminal Aerodrome Forecast
Issued by NWS

Current Version | Previous Version | Text Only | Print | Product List | Glossary On
Versions: 1 2 3 4 5 6 7 8 9 10 11 12 13 14
490
FTUS45 KTFX 281120
TAFHVR
TAF
KHVR 281120Z 2812/2912 28007KT P6SM VCSH OVC040
     FM282100 30009KT P6SM VCSH BKN045 PROB30 2821/2824 4SM -SHRA
      OVC025
     FM290100 33008KT P6SM BKN060
     FM290500 VRB05KT P6SM SCT060=

USA.gov is the U.S. government's official web portal to all federal, state and local government web resources and services.